createdAt,value
2023-01-17T00:02:20.164Z,96675.84
2023-01-17T00:05:05.980Z,96677.56
2023-01-17T00:07:52.305Z,96675.84
2023-01-17T00:10:27.502Z,96670.56
2023-01-17T00:13:03.298Z,96679.44
2023-01-17T00:15:32.846Z,96684.84
2023-01-17T00:18:01.662Z,96672.75
2023-01-17T00:20:50.581Z,96663.78
2023-01-17T00:23:56.017Z,96668.88
2023-01-17T00:26:24.486Z,96679.31
2023-01-17T00:28:51.768Z,96674.50
2023-01-17T00:31:19.068Z,96668.75
2023-01-17T00:33:46.394Z,96676.91
2023-01-17T00:36:13.997Z,96676.25
2023-01-17T00:38:42.047Z,96668.31
2023-01-17T00:41:13.978Z,96675.78
2023-01-17T00:43:59.878Z,96680.50
2023-01-17T00:46:46.007Z,96684.50
2023-01-17T00:49:31.789Z,96684.63
2023-01-17T00:52:16.986Z,96681.19
2023-01-17T00:55:02.800Z,96688.09
2023-01-17T00:57:49.214Z,96692.31
2023-01-17T01:00:37.299Z,96691.63
2023-01-17T01:03:30.782Z,96693.72
2023-01-17T01:06:17.619Z,96702.19
2023-01-17T01:09:02.961Z,96696.34
2023-01-17T01:11:48.748Z,96702.19
2023-01-17T01:14:34.586Z,96697.94
2023-01-17T01:17:20.549Z,96699.91
2023-01-17T01:20:06.210Z,96706.09
2023-01-17T01:22:51.698Z,96707.47
2023-01-17T01:25:37.415Z,96712.50
2023-01-17T01:28:32.123Z,96709.41
2023-01-17T01:31:22.357Z,96723.44
2023-01-17T01:33:53.587Z,96724.56
2023-01-17T01:36:22.585Z,96724.81
2023-01-17T01:38:51.066Z,96734.59
2023-01-17T01:41:19.716Z,96724.56
2023-01-17T01:43:56.198Z,96726.88
2023-01-17T01:46:38.021Z,96722.63
2023-01-17T01:49:24.655Z,96728.38
2023-01-17T01:52:01.256Z,96732.03
2023-01-17T01:54:58.346Z,96731.09
2023-01-17T01:57:32.443Z,96731.34
2023-01-17T02:00:11.609Z,96728.47
2023-01-17T02:02:40.338Z,96733.53
2023-01-17T02:05:09.849Z,96741.56
2023-01-17T02:08:04.766Z,96735.28
2023-01-17T02:10:35.165Z,96742.63
2023-01-17T02:13:04.224Z,96738.38
2023-01-17T02:15:47.849Z,96746.66
2023-01-17T02:18:42.556Z,96752.63
2023-01-17T02:21:28.717Z,96744.34
2023-01-17T02:25:02.316Z,96750.00
2023-01-17T02:27:43.141Z,96761.94
2023-01-17T02:30:40.965Z,96766.06
2023-01-17T02:33:14.712Z,96764.81
2023-01-17T02:36:24.097Z,96766.63
2023-01-17T02:38:53.796Z,96778.00
2023-01-17T02:41:33.785Z,96775.44
2023-01-17T02:44:03.806Z,96779.91
2023-01-17T02:46:32.332Z,96775.59
2023-01-17T02:49:01.616Z,96782.59
2023-01-17T02:51:39.073Z,96778.72
2023-01-17T02:54:33.780Z,96786.50
2023-01-17T02:57:31.160Z,96792.56
2023-01-17T03:00:14.023Z,96790.69
2023-01-17T03:02:55.860Z,96804.25
2023-01-17T03:05:47.199Z,96793.22
2023-01-17T03:08:16.989Z,96807.22
2023-01-17T03:10:46.287Z,96801.72
2023-01-17T03:13:14.953Z,96813.06
2023-01-17T03:15:43.496Z,96813.22
2023-01-17T03:18:16.025Z,96819.28
2023-01-17T03:20:44.562Z,96818.66
2023-01-17T03:23:13.047Z,96816.56
2023-01-17T03:25:41.559Z,96817.63
2023-01-17T03:28:09.687Z,96822.66
2023-01-17T03:30:38.144Z,96827.00
2023-01-17T03:33:06.591Z,96823.19
2023-01-17T03:35:35.038Z,96832.72
2023-01-17T03:38:03.607Z,96823.19
2023-01-17T03:40:32.071Z,96829.38
2023-01-17T03:43:00.530Z,96840.75
2023-01-17T03:45:28.667Z,96838.69
2023-01-17T03:47:57.884Z,96838.22
2023-01-17T03:50:26.559Z,96852.31
2023-01-17T03:52:55.066Z,96850.75
2023-01-17T03:55:24.031Z,96852.53
2023-01-17T03:57:52.826Z,96855.16
2023-01-17T04:00:21.936Z,96870.66
2023-01-17T04:02:50.676Z,96870.66
2023-01-17T04:05:19.243Z,96868.22
2023-01-17T04:07:47.816Z,96863.59
2023-01-17T04:10:17.234Z,96872.34
2023-01-17T04:12:45.645Z,96861.78
2023-01-17T04:15:14.122Z,96859.69
2023-01-17T04:17:42.675Z,96863.50
2023-01-17T04:20:37.414Z,96865.06
2023-01-17T04:23:06.186Z,96856.91
2023-01-17T04:25:34.911Z,96861.88
2023-01-17T04:28:04.651Z,96878.81
2023-01-17T04:30:34.221Z,96879.50
2023-01-17T04:33:02.947Z,96888.81
2023-01-17T04:35:33.435Z,96888.09
2023-01-17T04:38:02.110Z,96892.47
2023-01-17T04:40:34.949Z,96901.00
2023-01-17T04:43:03.414Z,96908.19
2023-01-17T04:45:31.865Z,96895.13
2023-01-17T04:48:07.649Z,96907.28
2023-01-17T04:50:36.393Z,96910.03
2023-01-17T04:53:05.004Z,96910.69
2023-01-17T04:55:33.404Z,96914.50
2023-01-17T04:58:01.800Z,96925.19
2023-01-17T05:00:30.389Z,96910.03
2023-01-17T05:02:59.457Z,96929.75
2023-01-17T05:05:27.915Z,96922.13
2023-01-17T05:08:00.039Z,96927.13
2023-01-17T05:10:28.712Z,96925.19
2023-01-17T05:13:00.987Z,96922.41
2023-01-17T05:15:29.711Z,96929.75
2023-01-17T05:17:58.176Z,96932.59
2023-01-17T05:20:27.815Z,96927.56
2023-01-17T05:22:58.183Z,96931.66
2023-01-17T05:25:29.584Z,96940.53
2023-01-17T05:28:00.005Z,96939.44
2023-01-17T05:30:34.290Z,96946.78
2023-01-17T05:33:03.057Z,96958.06
2023-01-17T05:35:33.694Z,96959.06
2023-01-17T05:38:02.500Z,96974.09
2023-01-17T05:40:33.366Z,96963.91
2023-01-17T05:43:03.105Z,96973.38
2023-01-17T05:45:33.315Z,96973.91
2023-01-17T05:48:02.356Z,96985.41
2023-01-17T05:50:34.384Z,96980.94
2023-01-17T05:53:09.581Z,96984.38
2023-01-17T05:55:38.529Z,96996.19
2023-01-17T05:58:07.525Z,97010.41
2023-01-17T06:00:37.360Z,97016.94
2023-01-17T06:03:05.935Z,97027.50
2023-01-17T06:05:34.436Z,97031.72
2023-01-17T06:08:02.998Z,97044.66
2023-01-17T06:10:31.799Z,97038.47
2023-01-17T06:13:12.650Z,97054.25
2023-01-17T06:15:41.423Z,97053.69
2023-01-17T06:18:15.940Z,97056.75
2023-01-17T06:20:44.923Z,97056.53
2023-01-17T06:23:15.592Z,97051.84
2023-01-17T06:25:46.975Z,97052.25
2023-01-17T06:28:20.906Z,97061.53
2023-01-17T06:30:49.758Z,97067.88
2023-01-17T06:33:18.585Z,97065.69
2023-01-17T06:35:51.784Z,97065.53
2023-01-17T06:38:20.507Z,97072.06
2023-01-17T06:40:49.161Z,97081.81
2023-01-17T06:43:18.045Z,97082.41
2023-01-17T06:45:46.528Z,97094.81
2023-01-17T06:48:15.187Z,97106.53
2023-01-17T06:50:43.908Z,97096.28
2023-01-17T06:53:12.330Z,97100.59
2023-01-17T06:55:42.573Z,97103.66
2023-01-17T06:58:11.406Z,97108.44
2023-01-17T07:00:41.031Z,97114.16
2023-01-17T07:03:24.717Z,97127.97
2023-01-17T07:05:53.383Z,97120.06
2023-01-17T07:08:22.333Z,97125.03
2023-01-17T07:10:51.151Z,97112.63
2023-01-17T07:13:19.661Z,97119.38
2023-01-17T07:15:48.194Z,97133.75
2023-01-17T07:18:20.628Z,97123.19
2023-01-17T07:20:49.177Z,97125.03
2023-01-17T07:23:18.692Z,97126.69
2023-01-17T07:25:59.482Z,97129.06
2023-01-17T07:28:29.240Z,97130.94
2023-01-17T07:30:57.640Z,97138.72
2023-01-17T07:33:26.151Z,97141.56
2023-01-17T07:35:54.556Z,97139.88
2023-01-17T07:38:23.049Z,97150.75
2023-01-17T07:40:51.559Z,97150.38
2023-01-17T07:43:19.975Z,97152.38
2023-01-17T07:45:51.944Z,97164.63
2023-01-17T07:48:22.752Z,97152.88
2023-01-17T07:50:58.873Z,97165.56
2023-01-17T07:53:30.481Z,97171.59
2023-01-17T07:56:03.612Z,97163.94
2023-01-17T07:58:33.018Z,97166.88
2023-01-17T08:01:11.130Z,97172.38
2023-01-17T08:03:40.763Z,97187.69
2023-01-17T08:06:26.750Z,97180.41
2023-01-17T08:08:57.084Z,97181.50
2023-01-17T08:11:25.849Z,97188.38
2023-01-17T08:13:57.447Z,97200.50
2023-01-17T08:16:26.958Z,97175.56
2023-01-17T08:18:56.858Z,97184.88
2023-01-17T08:21:25.719Z,97184.28
2023-01-17T08:23:54.407Z,97189.84
2023-01-17T08:26:23.633Z,97193.50
2023-01-17T08:29:00.917Z,97193.31
2023-01-17T08:31:34.965Z,97209.16
2023-01-17T08:34:03.486Z,97206.34
2023-01-17T08:36:32.310Z,97223.81
2023-01-17T08:39:00.959Z,97223.81
2023-01-17T08:41:29.412Z,97221.94
2023-01-17T08:43:58.001Z,97235.16
2023-01-17T08:46:27.007Z,97233.38
2023-01-17T08:48:58.780Z,97235.81
2023-01-17T08:51:32.780Z,97240.09
2023-01-17T08:54:02.070Z,97250.84
2023-01-17T08:56:30.454Z,97251.31
2023-01-17T08:58:58.877Z,97256.97
2023-01-17T09:01:27.375Z,97262.25
2023-01-17T09:03:55.902Z,97274.16
2023-01-17T09:06:24.314Z,97279.72
2023-01-17T09:08:54.823Z,97293.09
2023-01-17T09:11:23.264Z,97295.69
2023-01-17T09:13:51.647Z,97298.13
2023-01-17T09:16:20.087Z,97306.19
2023-01-17T09:18:48.595Z,97310.00
2023-01-17T09:21:19.846Z,97313.88
2023-01-17T09:23:48.608Z,97320.97
2023-01-17T09:26:29.884Z,97309.75
2023-01-17T09:28:58.724Z,97317.06
2023-01-17T09:31:28.108Z,97326.75
2023-01-17T09:33:58.705Z,97325.66
2023-01-17T09:36:29.153Z,97324.97
2023-01-17T09:38:59.242Z,97326.13
2023-01-17T09:41:35.370Z,97326.47
2023-01-17T09:44:47.697Z,97328.97
2023-01-17T09:47:43.864Z,97331.66
2023-01-17T09:50:34.066Z,97331.59
2023-01-17T09:53:12.660Z,97328.53
2023-01-17T09:56:07.744Z,97338.28
2023-01-17T09:59:03.369Z,97346.25
2023-01-17T10:01:44.426Z,97351.53
2023-01-17T10:04:18.536Z,97345.44
2023-01-17T10:07:05.541Z,97338.50
2023-01-17T10:10:24.303Z,97355.91
2023-01-17T10:13:34.445Z,97340.50
2023-01-17T10:16:42.701Z,97341.75
2023-01-17T10:19:53.939Z,97343.19
2023-01-17T10:22:25.036Z,97324.53
2023-01-17T10:25:14.201Z,97329.13
2023-01-17T10:27:59.301Z,97335.81
2023-01-17T10:30:38.100Z,97340.75
2023-01-17T10:33:19.643Z,97340.50
2023-01-17T10:35:57.864Z,97338.44
2023-01-17T10:38:43.120Z,97332.91
2023-01-17T10:41:41.511Z,97333.09
2023-01-17T10:44:42.282Z,97337.91
2023-01-17T10:47:13.474Z,97334.44
2023-01-17T10:49:50.292Z,97339.31
2023-01-17T10:52:30.506Z,97334.22
2023-01-17T10:55:48.527Z,97341.38
2023-01-17T10:58:18.410Z,97335.88
2023-01-17T11:01:12.333Z,97335.28
2023-01-17T11:03:42.263Z,97332.41
2023-01-17T11:06:28.402Z,97338.13
2023-01-17T11:08:59.459Z,97337.63
2023-01-17T11:11:49.300Z,97341.72
2023-01-17T11:14:22.045Z,97344.34
2023-01-17T11:17:07.676Z,97335.88
2023-01-17T11:19:38.652Z,97336.03
2023-01-17T11:22:09.381Z,97339.72
2023-01-17T11:24:48.720Z,97340.09
2023-01-17T11:27:33.137Z,97340.69
2023-01-17T11:30:20.715Z,97331.91
2023-01-17T11:32:55.062Z,97329.06
2023-01-17T11:35:25.600Z,97329.63
2023-01-17T11:38:19.236Z,97330.94
2023-01-17T11:40:49.872Z,97321.34
2023-01-17T11:43:29.710Z,97332.63
2023-01-17T11:46:18.824Z,97323.50
2023-01-17T11:48:59.609Z,97321.25
2023-01-17T11:51:41.407Z,97329.81
2023-01-17T11:54:30.024Z,97322.47
2023-01-17T11:57:02.948Z,97330.41
2023-01-17T11:59:38.818Z,97329.22
2023-01-17T12:02:25.819Z,97322.59
2023-01-17T12:05:25.365Z,97322.47
2023-01-17T12:08:12.480Z,97320.34
2023-01-17T12:11:22.072Z,97321.97
2023-01-17T12:14:20.520Z,97323.59
2023-01-17T12:17:26.489Z,97336.47
2023-01-17T12:20:06.192Z,97338.75
2023-01-17T12:22:49.673Z,97347.28
2023-01-17T12:26:03.905Z,97340.53
2023-01-17T12:29:15.254Z,97346.69
2023-01-17T12:32:40.254Z,97356.03
2023-01-17T12:35:20.149Z,97349.78
2023-01-17T12:38:05.003Z,97351.16
2023-01-17T12:40:33.791Z,97353.19
2023-01-17T12:43:35.185Z,97360.63
2023-01-17T12:46:13.780Z,97364.88
2023-01-17T12:48:42.227Z,97363.25
2023-01-17T12:51:18.141Z,97367.94
2023-01-17T12:54:19.602Z,97372.81
2023-01-17T12:56:54.522Z,97372.09
2023-01-17T13:00:04.603Z,97376.34
2023-01-17T13:03:36.253Z,97379.50
2023-01-17T13:06:07.503Z,97373.56
2023-01-17T13:08:46.393Z,97375.97
2023-01-17T13:11:44.166Z,97376.56
2023-01-17T13:14:12.354Z,97379.81
2023-01-17T13:17:01.500Z,97376.91
2023-01-17T13:19:43.273Z,97388.50
2023-01-17T13:22:17.479Z,97387.63
2023-01-17T13:25:00.692Z,97396.22
2023-01-17T13:27:52.429Z,97402.34
2023-01-17T13:30:43.287Z,97401.56
2023-01-17T13:33:41.089Z,97393.97
2023-01-17T13:36:22.820Z,97396.75
2023-01-17T13:38:55.977Z,97406.50
2023-01-17T13:41:55.778Z,97403.66
2023-01-17T13:44:30.070Z,97395.06
2023-01-17T13:47:01.776Z,97407.84
2023-01-17T13:49:36.731Z,97412.72
2023-01-17T13:52:27.627Z,97406.97
2023-01-17T13:55:02.614Z,97418.75
2023-01-17T13:57:40.271Z,97410.00
2023-01-17T14:00:16.429Z,97407.38
2023-01-17T14:02:46.475Z,97406.78
2023-01-17T14:05:56.454Z,97411.69
2023-01-17T14:08:28.758Z,97416.97
2023-01-17T14:11:13.266Z,97415.19
2023-01-17T14:13:53.035Z,97416.00
2023-01-17T14:16:31.358Z,97423.31
2023-01-17T14:18:59.923Z,97424.63
2023-01-17T14:21:32.336Z,97423.03
2023-01-17T14:24:04.929Z,97428.66
2023-01-17T14:26:49.718Z,97424.19
2023-01-17T14:29:58.614Z,97431.75
2023-01-17T14:32:36.813Z,97431.75
2023-01-17T14:35:09.130Z,97430.13
2023-01-17T14:37:52.355Z,97438.44
2023-01-17T14:40:33.474Z,97444.31
2023-01-17T14:43:14.490Z,97438.81
2023-01-17T14:45:44.500Z,97445.72
2023-01-17T14:48:23.409Z,97455.75
2023-01-17T14:50:54.181Z,97449.06
2023-01-17T14:53:33.208Z,97452.75
2023-01-17T14:56:12.436Z,97454.41
2023-01-17T14:58:41.266Z,97449.53
2023-01-17T15:01:20.565Z,97450.13
2023-01-17T15:03:56.827Z,97446.09
2023-01-17T15:06:40.676Z,97448.34
2023-01-17T15:09:22.367Z,97454.06
2023-01-17T15:11:53.020Z,97454.25
2023-01-17T15:14:29.969Z,97457.94
2023-01-17T15:16:58.083Z,97450.59
2023-01-17T15:19:26.162Z,97455.50
2023-01-17T15:21:55.933Z,97456.31
2023-01-17T15:24:34.444Z,97452.03
2023-01-17T15:27:03.299Z,97448.56
2023-01-17T15:29:36.512Z,97444.09
2023-01-17T15:32:07.056Z,97443.94
2023-01-17T15:34:38.958Z,97446.59
2023-01-17T15:37:26.571Z,97455.72
2023-01-17T15:40:17.097Z,97459.78
2023-01-17T15:42:48.762Z,97456.53
2023-01-17T15:45:22.086Z,97454.94
2023-01-17T15:47:50.557Z,97458.00
2023-01-17T15:50:22.453Z,97456.78
2023-01-17T15:52:53.404Z,97460.00
2023-01-17T15:55:31.625Z,97461.44
2023-01-17T15:58:00.022Z,97458.16
2023-01-17T16:00:39.228Z,97466.09
2023-01-17T16:03:30.370Z,97463.66
2023-01-17T16:06:02.898Z,97469.97
2023-01-17T16:08:39.602Z,97465.53
2023-01-17T16:11:09.654Z,97463.53
2023-01-17T16:13:42.182Z,97469.81
2023-01-17T16:16:17.525Z,97472.88
2023-01-17T16:18:47.649Z,97472.88
2023-01-17T16:21:24.386Z,97474.94
2023-01-17T16:23:53.040Z,97480.41
2023-01-17T16:26:22.023Z,97482.25
2023-01-17T16:28:51.136Z,97489.13
2023-01-17T16:31:19.980Z,97494.66
2023-01-17T16:33:51.120Z,97488.75
2023-01-17T16:36:21.285Z,97485.28
2023-01-17T16:38:52.170Z,97482.28
2023-01-17T16:41:21.387Z,97470.91
2023-01-17T16:44:03.003Z,97466.66
2023-01-17T16:46:31.840Z,97467.69
2023-01-17T16:49:03.143Z,97473.00
2023-01-17T16:51:32.035Z,97467.31
2023-01-17T16:54:02.299Z,97469.78
2023-01-17T16:56:30.877Z,97467.41
2023-01-17T16:58:59.423Z,97462.91
2023-01-17T17:01:28.049Z,97469.66
2023-01-17T17:03:56.806Z,97471.66
2023-01-17T17:06:25.356Z,97465.41
2023-01-17T17:08:53.777Z,97469.47
2023-01-17T17:11:24.658Z,97466.81
2023-01-17T17:13:53.444Z,97467.25
2023-01-17T17:16:29.964Z,97459.56
2023-01-17T17:19:07.630Z,97466.66
2023-01-17T17:21:37.979Z,97465.41
2023-01-17T17:24:06.801Z,97463.38
2023-01-17T17:26:37.651Z,97467.25
2023-01-17T17:29:10.522Z,97460.75
2023-01-17T17:31:41.655Z,97453.06
2023-01-17T17:34:13.567Z,97456.50
2023-01-17T17:36:42.465Z,97470.47
2023-01-17T17:39:14.771Z,97455.09
2023-01-17T17:41:45.700Z,97459.53
2023-01-17T17:44:14.489Z,97454.66
2023-01-17T17:46:43.318Z,97455.25
2023-01-17T17:49:11.941Z,97452.44
2023-01-17T17:51:41.288Z,97451.81
2023-01-17T17:54:14.187Z,97456.47
2023-01-17T17:56:46.512Z,97457.69
2023-01-17T17:59:18.369Z,97457.06
2023-01-17T18:01:48.347Z,97465.16
2023-01-17T18:04:16.962Z,97468.38
2023-01-17T18:06:45.581Z,97469.75
2023-01-17T18:09:14.668Z,97474.63
2023-01-17T18:11:45.083Z,97471.16
2023-01-17T18:14:16.118Z,97473.97
2023-01-17T18:16:45.632Z,97481.06
2023-01-17T18:19:22.685Z,97472.75
2023-01-17T18:21:52.121Z,97479.91
2023-01-17T18:24:25.953Z,97480.69
2023-01-17T18:26:57.629Z,97476.25
2023-01-17T18:29:28.005Z,97476.66
2023-01-17T18:31:56.918Z,97480.25
2023-01-17T18:34:29.394Z,97482.09
2023-01-17T18:36:58.727Z,97488.09
2023-01-17T18:39:30.113Z,97487.09
2023-01-17T18:41:59.063Z,97486.72
2023-01-17T18:44:27.909Z,97486.31
2023-01-17T18:46:58.650Z,97488.34
2023-01-17T18:49:27.265Z,97487.50
2023-01-17T18:51:55.722Z,97481.38
2023-01-17T18:54:24.243Z,97481.56
2023-01-17T18:56:52.784Z,97473.44
2023-01-17T18:59:23.655Z,97477.69
2023-01-17T19:01:52.251Z,97488.41
2023-01-17T19:04:21.549Z,97495.94
2023-01-17T19:06:50.131Z,97487.66
2023-01-17T19:09:19.513Z,97489.66
2023-01-17T19:11:48.047Z,97502.59
2023-01-17T19:14:16.651Z,97501.16
2023-01-17T19:16:45.375Z,97487.97
2023-01-17T19:19:16.512Z,97501.47
2023-01-17T19:21:45.222Z,97486.66
2023-01-17T19:24:14.328Z,97486.22
2023-01-17T19:26:43.417Z,97486.63
2023-01-17T19:29:12.178Z,97492.09
2023-01-17T19:31:43.142Z,97499.22
2023-01-17T19:34:14.053Z,97491.34
2023-01-17T19:36:42.812Z,97498.31
2023-01-17T19:39:12.444Z,97503.81
2023-01-17T19:41:45.967Z,97508.44
2023-01-17T19:44:15.905Z,97519.56
2023-01-17T19:46:46.101Z,97526.22
2023-01-17T19:49:23.972Z,97527.03
2023-01-17T19:51:52.653Z,97543.22
2023-01-17T19:54:21.321Z,97544.38
2023-01-17T19:56:53.748Z,97532.81
2023-01-17T19:59:22.689Z,97548.75
2023-01-17T20:01:51.340Z,97543.47
2023-01-17T20:04:20.444Z,97536.09
2023-01-17T20:06:50.626Z,97552.63
2023-01-17T20:09:19.056Z,97550.16
2023-01-17T20:11:48.841Z,97551.38
2023-01-17T20:14:17.405Z,97566.75
2023-01-17T20:16:47.648Z,97559.50
2023-01-17T20:19:16.959Z,97564.13
2023-01-17T20:21:45.451Z,97555.63
2023-01-17T20:24:16.345Z,97559.41
2023-01-17T20:26:44.943Z,97562.59
2023-01-17T20:29:16.340Z,97553.50
2023-01-17T20:31:45.986Z,97556.84
2023-01-17T20:34:18.687Z,97556.69
2023-01-17T20:36:47.775Z,97558.75
2023-01-17T20:39:16.694Z,97570.88
2023-01-17T20:41:46.223Z,97568.19
2023-01-17T20:44:16.622Z,97568.19
2023-01-17T20:46:45.575Z,97564.38
2023-01-17T20:49:18.887Z,97574.97
2023-01-17T20:51:47.889Z,97579.78
2023-01-17T20:54:19.299Z,97578.53
2023-01-17T20:56:48.742Z,97580.16
2023-01-17T20:59:21.696Z,97585.38
2023-01-17T21:01:50.918Z,97586.34
2023-01-17T21:04:25.585Z,97592.44
2023-01-17T21:06:57.876Z,97588.97
2023-01-17T21:09:26.253Z,97582.91
2023-01-17T21:12:01.199Z,97584.94
2023-01-17T21:14:30.329Z,97587.94
2023-01-17T21:16:58.772Z,97586.28
2023-01-17T21:19:27.327Z,97591.72
2023-01-17T21:21:56.239Z,97592.38
2023-01-17T21:24:24.685Z,97601.06
2023-01-17T21:26:53.092Z,97595.16
2023-01-17T21:29:23.234Z,97602.19
2023-01-17T21:31:51.660Z,97605.44
2023-01-17T21:34:20.053Z,97611.97
2023-01-17T21:36:48.420Z,97616.34
2023-01-17T21:39:19.828Z,97612.00
2023-01-17T21:41:50.744Z,97615.25
2023-01-17T21:44:24.444Z,97612.00
2023-01-17T21:46:56.169Z,97609.75
2023-01-17T21:49:25.187Z,97607.31
2023-01-17T21:52:10.968Z,97606.69
2023-01-17T21:54:56.733Z,97610.00
2023-01-17T21:57:42.647Z,97606.75
2023-01-17T22:00:15.457Z,97617.69
2023-01-17T22:02:48.282Z,97618.31
2023-01-17T22:05:18.536Z,97620.13
2023-01-17T22:08:02.305Z,97622.22
2023-01-17T22:10:30.956Z,97621.19
2023-01-17T22:12:59.502Z,97617.41
2023-01-17T22:15:28.026Z,97618.84
2023-01-17T22:17:56.765Z,97616.44
2023-01-17T22:20:25.445Z,97607.38
2023-01-17T22:22:53.967Z,97603.75
2023-01-17T22:25:23.321Z,97602.75
2023-01-17T22:27:51.810Z,97606.59
2023-01-17T22:30:19.981Z,97596.84
2023-01-17T22:32:48.404Z,97594.06
2023-01-17T22:35:16.889Z,97582.56
2023-01-17T22:37:45.366Z,97573.66
2023-01-17T22:40:14.060Z,97585.78
2023-01-17T22:42:42.484Z,97569.03
2023-01-17T22:45:11.293Z,97572.28
2023-01-17T22:47:40.457Z,97570.03
2023-01-17T22:50:09.334Z,97560.91
2023-01-17T22:52:37.713Z,97550.59
2023-01-17T22:55:06.878Z,97555.47
2023-01-17T22:57:35.275Z,97548.41
2023-01-17T23:00:14.520Z,97531.81
2023-01-17T23:02:43.717Z,97539.97
2023-01-17T23:05:12.675Z,97531.53
2023-01-17T23:07:44.308Z,97531.94
2023-01-17T23:10:34.859Z,97532.09
2023-01-17T23:13:03.327Z,97531.50
2023-01-17T23:15:49.206Z,97528.00
2023-01-17T23:18:35.569Z,97530.78
2023-01-17T23:21:05.132Z,97525.69
2023-01-17T23:23:34.013Z,97525.63
2023-01-17T23:26:02.833Z,97530.88
2023-01-17T23:28:30.252Z,97520.09
2023-01-17T23:31:04.930Z,97515.56
2023-01-17T23:33:33.445Z,97507.81
2023-01-17T23:36:01.876Z,97505.56
2023-01-17T23:38:29.815Z,97506.38
2023-01-17T23:41:25.146Z,97494.88
2023-01-17T23:43:55.068Z,97493.59
2023-01-17T23:46:24.581Z,97488.50
2023-01-17T23:48:52.880Z,97490.09
2023-01-17T23:51:21.299Z,97482.97
2023-01-17T23:53:52.136Z,97473.44
2023-01-17T23:56:24.655Z,97486.03
2023-01-17T23:58:53.374Z,97478.16
